createdAt,value
2022-08-05T00:00:15.994Z,94061.03
2022-08-05T00:02:50.476Z,94061.41
2022-08-05T00:06:02.744Z,94052.66
2022-08-05T00:08:05.151Z,94053.44
2022-08-05T00:10:46.315Z,94047.31
2022-08-05T00:13:18.536Z,94043.50
2022-08-05T00:15:56.135Z,94046.56
2022-08-05T00:18:26.918Z,94042.00
2022-08-05T00:20:56.081Z,94051.50
2022-08-05T00:23:44.267Z,94047.31
2022-08-05T00:26:10.632Z,94032.84
2022-08-05T00:28:37.445Z,94031.69
2022-08-05T00:31:07.644Z,94041.25
2022-08-05T00:34:54.742Z,94033.59
2022-08-05T00:37:13.280Z,94042.75
2022-08-05T00:39:13.752Z,94038.16
2022-08-05T00:41:52.128Z,94034.72
2022-08-05T00:44:30.981Z,94038.13
2022-08-05T00:47:04.059Z,94039.66
2022-08-05T00:49:44.739Z,94033.94
2022-08-05T00:52:18.548Z,94030.50
2022-08-05T00:54:55.273Z,94013.75
2022-08-05T00:57:25.180Z,94028.22
2022-08-05T00:59:58.236Z,94026.72
2022-08-05T01:02:24.947Z,94019.09
2022-08-05T01:04:51.705Z,94025.97
2022-08-05T01:07:18.488Z,94032.03
2022-08-05T01:09:45.219Z,94023.31
2022-08-05T01:12:25.170Z,94027.06
2022-08-05T01:15:03.992Z,94025.91
2022-08-05T01:17:40.110Z,94027.84
2022-08-05T01:20:45.743Z,94027.88
2022-08-05T01:23:34.922Z,94023.69
2022-08-05T01:26:27.047Z,94027.09
2022-08-05T01:29:22.984Z,94038.91
2022-08-05T01:31:54.347Z,94030.53
2022-08-05T01:34:27.136Z,94029.00
2022-08-05T01:37:09.546Z,94032.03
2022-08-05T01:39:48.949Z,94033.94
2022-08-05T01:42:20.021Z,94035.47
2022-08-05T01:44:54.331Z,94042.69
2022-08-05T01:47:23.851Z,94040.41
2022-08-05T01:50:01.514Z,94041.53
2022-08-05T01:52:30.553Z,94040.78
2022-08-05T01:55:04.432Z,94041.16
2022-08-05T01:58:11.253Z,94037.38
2022-08-05T02:00:21.526Z,94032.81
2022-08-05T02:03:04.086Z,94041.56
2022-08-05T02:05:35.969Z,94038.44
2022-08-05T02:08:04.769Z,94034.97
2022-08-05T02:10:36.839Z,94053.13
2022-08-05T02:13:15.851Z,94060.66
2022-08-05T02:16:07.384Z,94068.91
2022-08-05T02:19:07.209Z,94078.28
2022-08-05T02:21:42.953Z,94087.31
2022-08-05T02:24:18.191Z,94074.72
2022-08-05T02:27:10.053Z,94080.34
2022-08-05T02:29:59.174Z,94071.63
2022-08-05T02:32:31.749Z,94062.09
2022-08-05T02:35:13.606Z,94067.81
2022-08-05T02:37:47.642Z,94060.22
2022-08-05T02:40:17.059Z,94072.34
2022-08-05T02:42:53.094Z,94077.56
2022-08-05T02:45:25.642Z,94073.00
2022-08-05T02:48:06.452Z,94074.91
2022-08-05T02:50:35.029Z,94071.88
2022-08-05T02:53:02.588Z,94073.38
2022-08-05T02:55:54.885Z,94079.03
2022-08-05T02:58:20.821Z,94074.53
2022-08-05T03:00:48.997Z,94068.53
2022-08-05T03:03:19.966Z,94063.25
2022-08-05T03:06:55.043Z,94055.31
2022-08-05T03:08:42.346Z,94062.63
2022-08-05T03:11:54.424Z,94061.91
2022-08-05T03:14:13.225Z,94052.03
2022-08-05T03:16:40.586Z,94058.91
2022-08-05T03:19:12.749Z,94068.81
2022-08-05T03:21:48.783Z,94058.16
2022-08-05T03:24:23.620Z,94061.22
2022-08-05T03:26:58.087Z,94055.16
2022-08-05T03:29:24.756Z,94052.16
2022-08-05T03:32:11.926Z,94058.97
2022-08-05T03:34:42.560Z,94067.72
2022-08-05T03:37:18.374Z,94062.78
2022-08-05T03:40:08.606Z,94051.38
2022-08-05T03:42:41.818Z,94057.47
2022-08-05T03:45:21.672Z,94055.19
2022-08-05T03:47:51.374Z,94058.25
2022-08-05T03:50:18.281Z,94056.72
2022-08-05T03:55:52.580Z,94058.19
2022-08-05T03:56:30.586Z,94063.91
2022-08-05T03:59:04.054Z,94065.78
2022-08-05T04:01:36.549Z,94064.59
2022-08-05T04:04:10.296Z,94073.66
2022-08-05T04:06:38.438Z,94073.25
2022-08-05T04:09:15.482Z,94075.16
2022-08-05T04:11:50.691Z,94089.56
2022-08-05T04:14:19.636Z,94092.94
2022-08-05T04:16:58.859Z,94101.28
2022-08-05T04:19:25.659Z,94104.34
2022-08-05T04:22:09.508Z,94101.63
2022-08-05T04:24:52.971Z,94103.50
2022-08-05T04:27:41.625Z,94111.06
2022-08-05T04:30:08.953Z,94118.66
2022-08-05T04:32:36.553Z,94120.53
2022-08-05T04:35:04.777Z,94123.16
2022-08-05T04:38:02.603Z,94132.28
2022-08-05T04:40:19.833Z,94148.22
2022-08-05T04:42:46.550Z,94150.44
2022-08-05T04:45:14.214Z,94157.63
2022-08-05T04:48:10.316Z,94159.13
2022-08-05T04:51:03.365Z,94162.56
2022-08-05T04:53:35.765Z,94176.22
2022-08-05T04:56:33.873Z,94167.91
2022-08-05T04:58:50.183Z,94169.06
2022-08-05T05:01:33.653Z,94183.13
2022-08-05T05:04:04.806Z,94179.31
2022-08-05T05:06:40.240Z,94179.31
2022-08-05T05:09:14.106Z,94171.00
2022-08-05T05:11:54.445Z,94158.84
2022-08-05T05:14:27.708Z,94160.47
2022-08-05T05:17:01.608Z,94165.09
2022-08-05T05:19:37.240Z,94157.50
2022-08-05T05:22:24.364Z,94168.19
2022-08-05T05:24:59.784Z,94176.16
2022-08-05T05:27:44.434Z,94187.16
2022-08-05T05:30:15.383Z,94192.09
2022-08-05T05:32:42.529Z,94196.69
2022-08-05T05:35:09.556Z,94184.91
2022-08-05T05:37:59.365Z,94200.13
2022-08-05T05:40:28.767Z,94188.72
2022-08-05T05:42:57.087Z,94211.50
2022-08-05T05:45:24.747Z,94214.22
2022-08-05T05:48:07.831Z,94218.78
2022-08-05T05:50:42.534Z,94224.06
2022-08-05T05:53:21.902Z,94234.41
2022-08-05T05:55:52.451Z,94219.47
2022-08-05T05:58:31.621Z,94253.44
2022-08-05T06:01:12.776Z,94267.13
2022-08-05T06:04:00.949Z,94281.19
2022-08-05T06:06:30.831Z,94277.38
2022-08-05T06:08:58.435Z,94278.84
2022-08-05T06:11:25.165Z,94280.03
2022-08-05T06:13:54.021Z,94281.88
2022-08-05T06:16:29.590Z,94295.16
2022-08-05T06:19:01.187Z,94299.75
2022-08-05T06:21:36.911Z,94300.91
2022-08-05T06:24:11.959Z,94295.25
2022-08-05T06:26:51.508Z,94281.66
2022-08-05T06:29:25.504Z,94294.63
2022-08-05T06:32:21.446Z,94295.44
2022-08-05T06:34:57.240Z,94297.72
2022-08-05T06:37:57.480Z,94303.84
2022-08-05T06:40:14.123Z,94301.31
2022-08-05T06:42:52.076Z,94309.41
2022-08-05T06:45:44.034Z,94302.66
2022-08-05T06:48:47.090Z,94301.63
2022-08-05T06:50:53.847Z,94310.06
2022-08-05T06:53:27.786Z,94314.31
2022-08-05T06:55:59.864Z,94311.34
2022-08-05T06:58:35.019Z,94300.75
2022-08-05T07:01:06.010Z,94315.28
2022-08-05T07:03:33.652Z,94318.41
2022-08-05T07:06:06.075Z,94321.53
2022-08-05T07:08:41.949Z,94323.06
2022-08-05T07:11:15.557Z,94319.31
2022-08-05T07:14:01.615Z,94330.38
2022-08-05T07:17:56.940Z,94316.31
2022-08-05T07:22:28.699Z,94327.38
2022-08-05T07:25:23.831Z,94324.72
2022-08-05T07:28:01.473Z,94319.38
2022-08-05T07:30:34.694Z,94325.47
2022-08-05T07:33:09.868Z,94334.25
2022-08-05T07:36:03.643Z,94330.06
2022-08-05T07:38:32.483Z,94325.44
2022-08-05T07:41:16.841Z,94337.28
2022-08-05T07:43:49.486Z,94334.19
2022-08-05T07:46:25.517Z,94325.03
2022-08-05T07:49:01.587Z,94327.75
2022-08-05T07:51:40.429Z,94325.47
2022-08-05T07:54:09.786Z,94319.41
2022-08-05T07:57:02.643Z,94329.69
2022-08-05T07:59:38.742Z,94325.09
2022-08-05T08:02:15.624Z,94321.69
2022-08-05T08:04:48.566Z,94332.72
2022-08-05T08:07:17.759Z,94332.75
2022-08-05T08:09:45.720Z,94339.22
2022-08-05T08:12:37.547Z,94336.53
2022-08-05T08:15:02.084Z,94343.03
2022-08-05T08:17:30.251Z,94342.59
2022-08-05T08:20:10.255Z,94346.78
2022-08-05T08:22:43.708Z,94347.50
2022-08-05T08:25:16.618Z,94354.34
2022-08-05T08:27:45.171Z,94359.63
2022-08-05T08:30:29.839Z,94365.72
2022-08-05T08:33:08.301Z,94370.22
2022-08-05T08:35:41.249Z,94373.28
2022-08-05T08:38:08.681Z,94368.66
2022-08-05T08:40:45.718Z,94370.97
2022-08-05T08:45:17.799Z,94370.22
2022-08-05T08:46:06.494Z,94383.25
2022-08-05T08:49:03.044Z,94372.53
2022-08-05T08:52:03.573Z,94380.56
2022-08-05T08:54:11.300Z,94393.91
2022-08-05T08:56:47.396Z,94396.56
2022-08-05T08:59:19.785Z,94396.22
2022-08-05T09:01:57.223Z,94398.41
2022-08-05T09:04:30.704Z,94392.63
2022-08-05T09:06:58.291Z,94391.00
2022-08-05T09:09:25.993Z,94387.50
2022-08-05T09:12:05.978Z,94397.41
2022-08-05T09:14:57.860Z,94399.25
2022-08-05T09:17:42.751Z,94389.22
2022-08-05T09:20:13.491Z,94391.44
2022-08-05T09:23:19.992Z,94387.13
2022-08-05T09:26:01.668Z,94382.50
2022-08-05T09:28:33.571Z,94383.22
2022-08-05T09:31:44.071Z,94382.41
2022-08-05T09:33:56.575Z,94381.59
2022-08-05T09:36:27.320Z,94382.31
2022-08-05T09:39:18.472Z,94382.19
2022-08-05T09:42:03.952Z,94382.84
2022-08-05T09:44:50.799Z,94377.41
2022-08-05T09:47:23.690Z,94384.19
2022-08-05T09:50:00.551Z,94383.34
2022-08-05T09:52:36.127Z,94376.66
2022-08-05T09:55:55.584Z,94370.75
2022-08-05T09:57:54.831Z,94375.81
2022-08-05T10:00:25.946Z,94363.50
2022-08-05T10:02:54.755Z,94359.72
2022-08-05T10:05:27.151Z,94354.78
2022-08-05T10:08:36.053Z,94352.31
2022-08-05T10:10:54.198Z,94354.00
2022-08-05T10:13:47.352Z,94356.72
2022-08-05T10:16:37.759Z,94353.53
2022-08-05T10:19:10.192Z,94361.28
2022-08-05T10:21:41.025Z,94351.56
2022-08-05T10:24:13.008Z,94354.78
2022-08-05T10:26:51.563Z,94352.25
2022-08-05T10:29:23.646Z,94346.03
2022-08-05T10:32:55.767Z,94345.47
2022-08-05T10:35:01.152Z,94351.69
2022-08-05T10:37:40.093Z,94338.81
2022-08-05T10:40:49.998Z,94340.69
2022-08-05T10:43:51.036Z,94346.47
2022-08-05T10:46:23.738Z,94348.53
2022-08-05T10:49:01.443Z,94353.81
2022-08-05T10:51:58.338Z,94349.91
2022-08-05T10:55:02.068Z,94355.09
2022-08-05T10:57:30.929Z,94345.28
2022-08-05T11:00:19.030Z,94343.41
2022-08-05T11:03:23.784Z,94357.81
2022-08-05T11:06:18.462Z,94355.22
2022-08-05T11:09:13.214Z,94361.75
2022-08-05T11:11:52.518Z,94348.97
2022-08-05T11:18:07.320Z,94367.22
2022-08-05T11:20:41.575Z,94367.06
2022-08-05T11:23:49.826Z,94370.00
2022-08-05T11:26:28.563Z,94367.50
2022-08-05T11:29:06.665Z,94364.31
2022-08-05T11:31:57.834Z,94359.50
2022-08-05T11:34:57.369Z,94367.19
2022-08-05T11:38:29.526Z,94362.56
2022-08-05T11:41:34.757Z,94363.66
2022-08-05T11:44:05.715Z,94369.44
2022-08-05T11:47:10.350Z,94358.38
2022-08-05T11:49:29.006Z,94368.56
2022-08-05T11:52:01.287Z,94359.41
2022-08-05T11:54:38.132Z,94359.88
2022-08-05T11:57:08.270Z,94352.53
2022-08-05T11:59:51.497Z,94354.47
2022-08-05T12:02:30.352Z,94353.28
2022-08-05T12:04:59.885Z,94356.47
2022-08-05T12:08:09.529Z,94350.13
2022-08-05T12:10:21.417Z,94350.34
2022-08-05T12:13:00.285Z,94348.34
2022-08-05T12:15:33.965Z,94341.59
2022-08-05T12:18:10.804Z,94343.81
2022-08-05T12:20:39.216Z,94331.72
2022-08-05T12:23:12.672Z,94325.63
2022-08-05T12:26:09.146Z,94331.00
2022-08-05T12:28:38.992Z,94332.50
2022-08-05T12:31:05.881Z,94329.75
2022-08-05T12:33:36.075Z,94330.00
2022-08-05T12:36:08.638Z,94330.81
2022-08-05T12:38:41.178Z,94327.25
2022-08-05T12:41:13.146Z,94324.75
2022-08-05T12:43:58.791Z,94307.50
2022-08-05T12:46:32.915Z,94310.28
2022-08-05T12:49:18.900Z,94311.94
2022-08-05T12:52:12.016Z,94309.59
2022-08-05T12:54:44.693Z,94310.00
2022-08-05T12:57:13.174Z,94314.56
2022-08-05T13:01:57.016Z,94310.84
2022-08-05T13:02:40.144Z,94304.94
2022-08-05T13:05:08.401Z,94301.66
2022-08-05T13:07:59.230Z,94303.56
2022-08-05T13:10:27.039Z,94298.81
2022-08-05T13:12:57.885Z,94284.56
2022-08-05T13:15:41.679Z,94281.50
2022-08-05T13:18:18.799Z,94291.41
2022-08-05T13:20:49.370Z,94288.50
2022-08-05T13:23:22.272Z,94268.00
2022-08-05T13:25:51.830Z,94278.31
2022-08-05T13:28:27.306Z,94260.94
2022-08-05T13:30:53.976Z,94275.88
2022-08-05T13:34:25.160Z,94272.22
2022-08-05T13:36:09.105Z,94266.88
2022-08-05T13:38:42.325Z,94263.25
2022-08-05T13:41:11.266Z,94261.31
2022-08-05T13:43:44.852Z,94258.31
2022-08-05T13:46:13.001Z,94263.50
2022-08-05T13:48:58.261Z,94253.84
2022-08-05T13:51:29.595Z,94250.22
2022-08-05T13:54:03.549Z,94252.84
2022-08-05T13:56:44.871Z,94237.94
2022-08-05T13:59:20.107Z,94248.00
2022-08-05T14:01:57.696Z,94247.34
2022-08-05T14:04:51.318Z,94246.06
2022-08-05T14:07:56.477Z,94253.44
2022-08-05T14:10:11.720Z,94244.38
2022-08-05T14:12:38.808Z,94242.56
2022-08-05T14:16:05.641Z,94239.47
2022-08-05T14:17:55.076Z,94231.03
2022-08-05T14:20:27.302Z,94243.56
2022-08-05T14:22:54.705Z,94229.38
2022-08-05T14:25:22.688Z,94233.31
2022-08-05T14:27:55.027Z,94226.06
2022-08-05T14:30:21.889Z,94229.38
2022-08-05T14:32:49.121Z,94233.63
2022-08-05T14:35:20.639Z,94232.53
2022-08-05T14:37:53.522Z,94222.41
2022-08-05T14:40:24.541Z,94229.34
2022-08-05T14:42:51.887Z,94228.72
2022-08-05T14:45:19.183Z,94225.72
2022-08-05T14:48:03.961Z,94234.47
2022-08-05T14:50:33.377Z,94226.22
2022-08-05T14:53:06.824Z,94224.94
2022-08-05T14:55:39.556Z,94230.06
2022-08-05T14:58:11.638Z,94215.94
2022-08-05T15:00:58.709Z,94221.47
2022-08-05T15:03:33.696Z,94224.56
2022-08-05T15:06:12.664Z,94220.75
2022-08-05T15:08:59.579Z,94229.94
2022-08-05T15:11:51.275Z,94229.50
2022-08-05T15:14:33.158Z,94228.50
2022-08-05T15:17:00.950Z,94228.25
2022-08-05T15:19:27.643Z,94234.66
2022-08-05T15:21:54.530Z,94226.41
2022-08-05T15:24:27.152Z,94234.13
2022-08-05T15:26:53.830Z,94225.59
2022-08-05T15:29:22.913Z,94227.13
2022-08-05T15:31:52.748Z,94226.63
2022-08-05T15:34:32.567Z,94224.69
2022-08-05T15:37:04.870Z,94232.13
2022-08-05T15:41:00.920Z,94234.00
2022-08-05T15:42:53.749Z,94234.00
2022-08-05T15:45:10.649Z,94234.47
2022-08-05T15:47:42.175Z,94234.88
2022-08-05T15:50:15.514Z,94227.19
2022-08-05T15:52:53.517Z,94221.03
2022-08-05T15:55:25.034Z,94212.88
2022-08-05T15:58:16.561Z,94209.22
2022-08-05T16:00:50.762Z,94200.88
2022-08-05T16:03:30.375Z,94205.50
2022-08-05T16:05:59.510Z,94203.97
2022-08-05T16:08:30.751Z,94194.81
2022-08-05T16:10:58.606Z,94221.75
2022-08-05T16:13:34.229Z,94221.81
2022-08-05T16:16:05.006Z,94223.47
2022-08-05T16:18:33.118Z,94226.91
2022-08-05T16:21:04.007Z,94228.91
2022-08-05T16:23:33.024Z,94232.41
2022-08-05T16:26:18.667Z,94229.03
2022-08-05T16:28:52.705Z,94230.22
2022-08-05T16:31:21.605Z,94230.22
2022-08-05T16:33:49.001Z,94234.88
2022-08-05T16:36:20.131Z,94237.00
2022-08-05T16:38:54.794Z,94233.28
2022-08-05T16:42:15.015Z,94234.94
2022-08-05T16:44:09.868Z,94235.75
2022-08-05T16:46:38.864Z,94242.75
2022-08-05T16:49:09.083Z,94247.44
2022-08-05T16:51:42.669Z,94237.09
2022-08-05T16:54:24.837Z,94233.75
2022-08-05T16:56:52.569Z,94236.19
2022-08-05T16:59:19.161Z,94233.97
2022-08-05T17:01:54.695Z,94234.00
2022-08-05T17:04:26.301Z,94245.56
2022-08-05T17:06:55.386Z,94246.44
2022-08-05T17:09:23.189Z,94249.28
2022-08-05T17:11:54.642Z,94244.38
2022-08-05T17:14:37.307Z,94267.81
2022-08-05T17:17:14.560Z,94272.88
2022-08-05T17:19:45.387Z,94272.91
2022-08-05T17:22:24.878Z,94273.00
2022-08-05T17:24:57.562Z,94273.84
2022-08-05T17:27:27.281Z,94280.03
2022-08-05T17:30:02.506Z,94277.75
2022-08-05T17:32:29.796Z,94292.56
2022-08-05T17:34:58.283Z,94285.16
2022-08-05T17:37:39.648Z,94285.81
2022-08-05T17:40:12.208Z,94296.59
2022-08-05T17:42:41.364Z,94298.28
2022-08-05T17:45:20.625Z,94306.84
2022-08-05T17:47:52.939Z,94305.84
2022-08-05T17:50:28.605Z,94289.78
2022-08-05T17:53:02.185Z,94293.34
2022-08-05T17:55:37.976Z,94294.28
2022-08-05T17:58:09.861Z,94294.22
2022-08-05T18:00:45.395Z,94311.53
2022-08-05T18:03:33.242Z,94302.28
2022-08-05T18:06:06.097Z,94301.91
2022-08-05T18:08:38.356Z,94316.59
2022-08-05T18:11:07.565Z,94336.72
2022-08-05T18:13:43.999Z,94335.72
2022-08-05T18:16:13.454Z,94328.22
2022-08-05T18:18:41.273Z,94350.16
2022-08-05T18:21:13.062Z,94349.47
2022-08-05T18:23:47.089Z,94365.25
2022-08-05T18:26:13.961Z,94362.63
2022-08-05T18:28:44.631Z,94355.84
2022-08-05T18:31:13.302Z,94352.06
2022-08-05T18:33:47.130Z,94348.69
2022-08-05T18:36:17.480Z,94357.84
2022-08-05T18:38:46.131Z,94352.16
2022-08-05T18:41:56.361Z,94372.38
2022-08-05T18:44:06.295Z,94382.69
2022-08-05T18:46:34.594Z,94388.81
2022-08-05T18:49:21.446Z,94386.53
2022-08-05T18:52:08.618Z,94388.03
2022-08-05T18:54:35.812Z,94392.97
2022-08-05T18:57:02.993Z,94404.81
2022-08-05T18:59:44.437Z,94416.63
2022-08-05T19:02:26.960Z,94413.94
2022-08-05T19:05:02.560Z,94416.59
2022-08-05T19:07:46.249Z,94418.44
2022-08-05T19:10:14.899Z,94413.91
2022-08-05T19:12:41.757Z,94411.19
2022-08-05T19:15:45.037Z,94422.66
2022-08-05T19:17:59.121Z,94436.75
2022-08-05T19:20:35.701Z,94426.75
2022-08-05T19:23:03.364Z,94434.34
2022-08-05T19:25:43.526Z,94451.88
2022-08-05T19:28:11.044Z,94456.03
2022-08-05T19:30:39.309Z,94466.72
2022-08-05T19:33:11.267Z,94457.16
2022-08-05T19:35:56.709Z,94462.81
2022-08-05T19:38:26.710Z,94442.63
2022-08-05T19:40:53.623Z,94444.13
2022-08-05T19:44:04.906Z,94441.81
2022-08-05T19:46:06.799Z,94442.56
2022-08-05T19:48:53.397Z,94440.25
2022-08-05T19:52:04.524Z,94435.63
2022-08-05T19:54:26.685Z,94447.34
2022-08-05T19:56:57.627Z,94458.38
2022-08-05T19:59:56.514Z,94463.69
2022-08-05T20:02:11.043Z,94450.31
2022-08-05T20:04:38.081Z,94460.59
2022-08-05T20:07:10.298Z,94459.81
2022-08-05T20:09:55.193Z,94464.38
2022-08-05T20:12:24.566Z,94481.09
2022-08-05T20:14:52.875Z,94477.66
2022-08-05T20:17:23.954Z,94487.16
2022-08-05T20:19:56.568Z,94487.50
2022-08-05T20:22:26.795Z,94481.78
2022-08-05T20:24:54.767Z,94471.44
2022-08-05T20:27:26.837Z,94467.28
2022-08-05T20:29:58.275Z,94482.44
2022-08-05T20:32:26.854Z,94478.63
2022-08-05T20:34:54.332Z,94479.34
2022-08-05T20:38:05.540Z,94476.97
2022-08-05T20:40:08.581Z,94480.31
2022-08-05T20:42:35.450Z,94477.16
2022-08-05T20:45:02.652Z,94463.69
2022-08-05T20:47:31.851Z,94501.28
2022-08-05T20:49:59.875Z,94499.28
2022-08-05T20:52:29.532Z,94517.56
2022-08-05T20:54:59.213Z,94527.44
2022-08-05T20:57:42.131Z,94546.41
2022-08-05T21:00:41.452Z,94550.56
2022-08-05T21:03:04.561Z,94556.19
2022-08-05T21:05:47.937Z,94567.50
2022-08-05T21:08:28.061Z,94556.00
2022-08-05T21:11:11.926Z,94557.50
2022-08-05T21:13:56.253Z,94560.94
2022-08-05T21:16:30.026Z,94567.38
2022-08-05T21:19:01.408Z,94574.88
2022-08-05T21:21:44.016Z,94590.91
2022-08-05T21:24:16.020Z,94588.63
2022-08-05T21:26:47.186Z,94591.22
2022-08-05T21:29:20.451Z,94608.56
2022-08-05T21:31:53.093Z,94613.47
2022-08-05T21:34:20.475Z,94611.47
2022-08-05T21:36:49.233Z,94611.88
2022-08-05T21:39:16.851Z,94611.22
2022-08-05T21:41:52.633Z,94622.63
2022-08-05T21:44:27.943Z,94637.09
2022-08-05T21:46:58.057Z,94644.69
2022-08-05T21:49:58.813Z,94660.91
2022-08-05T21:52:21.708Z,94659.72
2022-08-05T21:54:55.254Z,94678.00
2022-08-05T21:57:31.288Z,94687.47
2022-08-05T22:00:10.881Z,94709.38
2022-08-05T22:02:41.814Z,94725.84
2022-08-05T22:05:10.333Z,94727.34
2022-08-05T22:07:39.956Z,94711.16
2022-08-05T22:10:27.031Z,94673.38
2022-08-05T22:12:57.202Z,94690.47
2022-08-05T22:16:00.750Z,94711.34
2022-08-05T22:18:11.846Z,94694.72
2022-08-05T22:20:39.821Z,94688.59
2022-08-05T22:23:25.338Z,94689.22
2022-08-05T22:26:30.206Z,94694.81
2022-08-05T22:28:56.831Z,94696.19
2022-08-05T22:31:24.810Z,94708.53
2022-08-05T22:34:01.509Z,94720.16
2022-08-05T22:36:29.198Z,94720.94
2022-08-05T22:38:56.719Z,94722.81
2022-08-05T22:42:05.389Z,94730.03
2022-08-05T22:44:11.884Z,94724.53
2022-08-05T22:46:40.643Z,94721.09
2022-08-05T22:49:23.050Z,94722.22
2022-08-05T22:52:04.612Z,94722.75
2022-08-05T22:54:33.663Z,94731.38
2022-08-05T22:57:00.323Z,94730.56
2022-08-05T22:59:48.304Z,94725.53
2022-08-05T23:02:16.425Z,94722.28
2022-08-05T23:04:52.032Z,94728.09
2022-08-05T23:07:21.848Z,94735.88
2022-08-05T23:09:57.827Z,94737.59
2022-08-05T23:12:29.005Z,94745.44
2022-08-05T23:15:00.430Z,94741.28
2022-08-05T23:17:34.437Z,94741.94
2022-08-05T23:20:16.440Z,94746.22
2022-08-05T23:22:48.411Z,94759.22
2022-08-05T23:25:52.003Z,94746.75
2022-08-05T23:28:07.014Z,94736.19
2022-08-05T23:30:40.437Z,94732.94
2022-08-05T23:33:16.163Z,94746.44
2022-08-05T23:35:50.763Z,94745.56
2022-08-05T23:38:18.057Z,94753.84
2022-08-05T23:40:50.258Z,94756.72
2022-08-05T23:43:25.066Z,94761.91
2022-08-05T23:46:19.839Z,94753.53
2022-08-05T23:49:00.015Z,94750.03
2022-08-05T23:51:53.785Z,94756.41
2022-08-05T23:54:30.457Z,94746.25
2022-08-05T23:57:03.750Z,94759.59
